createdAt,value
2022-08-04T00:01:10.351Z,23.72
2022-08-04T00:03:44.993Z,23.75
2022-08-04T00:06:22.057Z,23.76
2022-08-04T00:08:53.043Z,23.79
2022-08-04T00:11:25.176Z,23.80
2022-08-04T00:14:03.346Z,23.83
2022-08-04T00:16:37.923Z,23.82
2022-08-04T00:19:12.423Z,23.72
2022-08-04T00:21:46.400Z,23.53
2022-08-04T00:24:15.882Z,23.47
2022-08-04T00:26:44.587Z,23.34
2022-08-04T00:29:12.566Z,23.29
2022-08-04T00:31:55.102Z,23.19
2022-08-04T00:34:28.072Z,23.19
2022-08-04T00:36:58.451Z,23.24
2022-08-04T00:39:27.355Z,23.10
2022-08-04T00:42:34.267Z,22.88
2022-08-04T00:45:22.543Z,22.90
2022-08-04T00:48:03.820Z,22.96
2022-08-04T00:50:45.122Z,22.95
2022-08-04T00:53:20.222Z,22.93
2022-08-04T00:56:00.128Z,22.92
2022-08-04T00:58:44.085Z,23.02
2022-08-04T01:01:23.433Z,23.06
2022-08-04T01:04:03.584Z,23.05
2022-08-04T01:06:38.598Z,23.15
2022-08-04T01:09:30.168Z,23.00
2022-08-04T01:12:16.571Z,23.03
2022-08-04T01:15:04.004Z,23.08
2022-08-04T01:17:44.462Z,23.04
2022-08-04T01:20:21.654Z,23.04
2022-08-04T01:23:15.710Z,22.96
2022-08-04T01:26:42.597Z,22.72
2022-08-04T01:29:14.255Z,22.70
2022-08-04T01:31:54.654Z,22.61
2022-08-04T01:34:24.224Z,22.56
2022-08-04T01:37:00.571Z,22.65
2022-08-04T01:39:42.731Z,22.64
2022-08-04T01:42:12.542Z,22.66
2022-08-04T01:44:42.860Z,22.50
2022-08-04T01:47:10.962Z,22.42
2022-08-04T01:49:41.093Z,22.41
2022-08-04T01:52:11.391Z,22.31
2022-08-04T01:54:42.849Z,22.26
2022-08-04T01:57:37.033Z,22.27
2022-08-04T02:00:02.099Z,22.27
2022-08-04T02:02:32.003Z,22.13
2022-08-04T02:04:59.894Z,22.03
2022-08-04T02:07:41.347Z,21.96
2022-08-04T02:10:19.331Z,21.88
2022-08-04T02:12:56.996Z,21.67
2022-08-04T02:15:31.572Z,21.63
2022-08-04T02:18:04.562Z,21.64
2022-08-04T02:20:36.493Z,21.54
2022-08-04T02:23:06.957Z,21.64
2022-08-04T02:25:40.456Z,21.64
2022-08-04T02:28:24.073Z,21.63
2022-08-04T02:31:04.795Z,21.60
2022-08-04T02:33:38.096Z,21.61
2022-08-04T02:36:10.487Z,21.70
2022-08-04T02:38:55.080Z,21.76
2022-08-04T02:41:24.475Z,21.75
2022-08-04T02:43:56.120Z,21.73
2022-08-04T02:46:26.080Z,21.60
2022-08-04T02:48:55.087Z,21.51
2022-08-04T02:51:29.834Z,21.56
2022-08-04T02:53:59.700Z,21.56
2022-08-04T02:56:31.135Z,21.50
2022-08-04T02:59:01.212Z,21.50
2022-08-04T03:01:30.875Z,21.44
2022-08-04T03:04:25.082Z,21.39
2022-08-04T03:07:21.184Z,21.29
2022-08-04T03:10:29.414Z,21.34
2022-08-04T03:13:41.978Z,21.26
2022-08-04T03:16:47.131Z,21.18
2022-08-04T03:19:37.477Z,21.11
2022-08-04T03:22:25.137Z,21.13
2022-08-04T03:25:22.305Z,21.15
2022-08-04T03:28:19.986Z,21.13
2022-08-04T03:31:11.801Z,21.07
2022-08-04T03:33:51.880Z,21.05
2022-08-04T03:36:52.578Z,20.94
2022-08-04T03:39:59.925Z,21.02
2022-08-04T03:43:00.160Z,20.98
2022-08-04T03:46:06.270Z,20.89
2022-08-04T03:49:16.932Z,20.76
2022-08-04T03:52:18.098Z,20.67
2022-08-04T03:55:25.137Z,20.65
2022-08-04T03:58:51.946Z,20.50
2022-08-04T04:02:01.387Z,20.41
2022-08-04T04:04:48.997Z,20.44
2022-08-04T04:08:01.970Z,20.31
2022-08-04T04:10:47.918Z,20.33
2022-08-04T04:13:45.394Z,20.31
2022-08-04T04:16:39.081Z,20.31
2022-08-04T04:19:30.722Z,20.30
2022-08-04T04:22:23.268Z,20.39
2022-08-04T04:25:04.175Z,20.44
2022-08-04T04:27:44.377Z,20.51
2022-08-04T04:30:18.509Z,20.43
2022-08-04T04:33:04.328Z,20.30
2022-08-04T04:35:38.681Z,20.42
2022-08-04T04:38:25.985Z,20.38
2022-08-04T04:41:06.266Z,20.54
2022-08-04T04:44:07.443Z,20.58
2022-08-04T04:46:42.792Z,20.74
2022-08-04T04:49:22.095Z,20.80
2022-08-04T04:51:52.979Z,20.97
2022-08-04T04:54:29.780Z,21.03
2022-08-04T04:57:06.951Z,21.13
2022-08-04T04:59:37.988Z,21.10
2022-08-04T05:02:37.708Z,21.07
2022-08-04T05:05:18.799Z,21.18
2022-08-04T05:08:45.204Z,21.08
2022-08-04T05:11:14.812Z,21.06
2022-08-04T05:14:37.202Z,21.12
2022-08-04T05:16:38.477Z,21.30
2022-08-04T05:19:18.854Z,21.61
2022-08-04T05:21:50.849Z,21.66
2022-08-04T05:24:21.006Z,21.81
2022-08-04T05:26:54.539Z,21.95
2022-08-04T05:29:31.861Z,22.27
2022-08-04T05:32:06.630Z,22.44
2022-08-04T05:34:40.252Z,22.78
2022-08-04T05:37:11.580Z,23.08
2022-08-04T05:39:47.070Z,23.40
2022-08-04T05:42:16.849Z,23.50
2022-08-04T05:44:50.737Z,23.95
2022-08-04T05:47:21.560Z,23.88
2022-08-04T05:50:01.039Z,23.85
2022-08-04T05:52:31.407Z,23.71
2022-08-04T05:55:01.438Z,24.13
2022-08-04T05:57:31.715Z,24.46
2022-08-04T06:00:10.562Z,24.38
2022-08-04T06:02:50.928Z,24.70
2022-08-04T06:05:19.980Z,24.94
2022-08-04T06:08:12.508Z,25.59
2022-08-04T06:10:40.841Z,25.88
2022-08-04T06:13:49.376Z,26.29
2022-08-04T06:16:03.908Z,25.41
2022-08-04T06:20:00.350Z,25.31
2022-08-04T06:21:25.694Z,25.58
2022-08-04T06:24:00.850Z,25.84
2022-08-04T06:26:35.608Z,25.75
2022-08-04T06:29:10.612Z,25.95
2022-08-04T06:32:27.157Z,25.86
2022-08-04T06:34:36.181Z,25.81
2022-08-04T06:37:05.141Z,25.90
2022-08-04T06:39:34.032Z,25.84
2022-08-04T06:42:22.143Z,25.89
2022-08-04T06:44:57.678Z,26.45
2022-08-04T06:47:26.418Z,27.35
2022-08-04T06:51:25.533Z,27.34
2022-08-04T06:52:46.063Z,27.40
2022-08-04T06:55:14.474Z,27.77
2022-08-04T06:57:42.776Z,27.86
2022-08-04T07:00:14.392Z,27.98
2022-08-04T07:02:46.037Z,28.00
2022-08-04T07:05:14.682Z,28.80
2022-08-04T07:07:58.133Z,28.87
2022-08-04T07:10:27.707Z,28.13
2022-08-04T07:12:57.009Z,28.48
2022-08-04T07:15:27.628Z,28.57
2022-08-04T07:17:59.860Z,28.91
2022-08-04T07:20:34.386Z,29.59
2022-08-04T07:23:04.829Z,29.41
2022-08-04T07:25:59.093Z,29.14
2022-08-04T07:28:23.279Z,29.35
2022-08-04T07:30:54.429Z,29.59
2022-08-04T07:33:23.230Z,30.12
2022-08-04T07:36:09.113Z,30.44
2022-08-04T07:38:48.235Z,30.49
2022-08-04T07:41:38.345Z,30.75
2022-08-04T07:44:06.738Z,30.73
2022-08-04T07:46:36.426Z,30.86
2022-08-04T07:49:04.565Z,31.31
2022-08-04T07:51:35.301Z,31.37
2022-08-04T07:54:05.191Z,30.91
2022-08-04T07:56:36.854Z,31.67
2022-08-04T07:59:06.253Z,31.91
2022-08-04T08:01:36.128Z,31.83
2022-08-04T08:04:06.950Z,32.16
2022-08-04T08:06:42.581Z,31.76
2022-08-04T08:09:14.517Z,32.46
2022-08-04T08:12:35.881Z,32.63
2022-08-04T08:14:33.294Z,33.49
2022-08-04T08:17:03.111Z,33.73
2022-08-04T08:19:31.615Z,34.46
2022-08-04T08:22:01.232Z,34.33
2022-08-04T08:24:30.929Z,34.45
2022-08-04T08:27:00.030Z,35.30
2022-08-04T08:29:29.319Z,35.62
2022-08-04T08:32:02.648Z,35.05
2022-08-04T08:34:34.868Z,35.24
2022-08-04T08:37:10.706Z,35.26
2022-08-04T08:39:44.131Z,36.67
2022-08-04T08:42:38.384Z,37.82
2022-08-04T08:45:41.548Z,37.90
2022-08-04T08:48:51.485Z,38.37
2022-08-04T08:51:34.722Z,36.88
2022-08-04T08:54:35.268Z,38.57
2022-08-04T08:57:25.101Z,38.62
2022-08-04T09:00:08.426Z,39.34
2022-08-04T09:03:12.953Z,40.37
2022-08-04T09:06:00.336Z,40.20
2022-08-04T09:08:43.211Z,39.92
2022-08-04T09:11:13.705Z,39.73
2022-08-04T09:13:45.888Z,40.11
2022-08-04T09:16:20.369Z,40.06
2022-08-04T09:18:56.011Z,40.49
2022-08-04T09:21:32.945Z,39.49
2022-08-04T09:24:36.163Z,39.54
2022-08-04T09:27:02.398Z,42.01
2022-08-04T09:29:37.462Z,42.88
2022-08-04T09:32:11.629Z,42.16
2022-08-04T09:35:06.094Z,41.46
2022-08-04T09:37:45.717Z,41.04
2022-08-04T09:40:29.238Z,41.48
2022-08-04T09:43:12.809Z,40.56
2022-08-04T09:45:49.250Z,40.77
2022-08-04T09:48:23.406Z,39.81
2022-08-04T09:50:58.144Z,40.06
2022-08-04T09:53:43.145Z,39.91
2022-08-04T09:56:21.605Z,40.88
2022-08-04T09:59:01.279Z,40.96
2022-08-04T10:01:32.070Z,41.27
2022-08-04T10:04:02.291Z,41.37
2022-08-04T10:06:59.945Z,41.99
2022-08-04T10:09:48.142Z,42.53
2022-08-04T10:12:44.876Z,42.30
2022-08-04T10:15:17.648Z,41.62
2022-08-04T10:18:03.874Z,41.33
2022-08-04T10:21:15.031Z,41.21
2022-08-04T10:23:56.613Z,40.95
2022-08-04T10:26:38.147Z,41.66
2022-08-04T10:29:12.053Z,40.63
2022-08-04T10:31:45.929Z,40.27
2022-08-04T10:34:18.921Z,39.61
2022-08-04T10:36:55.278Z,39.33
2022-08-04T10:39:43.538Z,39.16
2022-08-04T10:42:23.362Z,39.26
2022-08-04T10:45:07.175Z,39.69
2022-08-04T10:47:39.200Z,39.61
2022-08-04T10:50:12.495Z,40.07
2022-08-04T10:52:47.304Z,39.90
2022-08-04T10:55:20.257Z,39.22
2022-08-04T10:57:52.614Z,39.11
2022-08-04T11:00:25.587Z,38.99
2022-08-04T11:03:00.662Z,39.37
2022-08-04T11:05:43.840Z,40.44
2022-08-04T11:08:20.566Z,40.83
2022-08-04T11:11:00.287Z,40.94
2022-08-04T11:13:35.022Z,41.72
2022-08-04T11:16:10.708Z,41.57
2022-08-04T11:18:48.982Z,41.97
2022-08-04T11:21:22.849Z,41.77
2022-08-04T11:24:00.645Z,42.13
2022-08-04T11:26:39.081Z,41.81
2022-08-04T11:29:18.231Z,41.72
2022-08-04T11:31:52.028Z,41.55
2022-08-04T11:34:22.217Z,41.55
2022-08-04T11:36:55.366Z,41.28
2022-08-04T11:39:29.748Z,41.62
2022-08-04T11:42:08.809Z,42.18
2022-08-04T11:44:42.584Z,42.00
2022-08-04T11:47:20.904Z,41.22
2022-08-04T11:49:57.591Z,40.11
2022-08-04T11:52:29.205Z,39.79
2022-08-04T11:54:59.359Z,38.92
2022-08-04T11:57:35.690Z,38.76
2022-08-04T12:00:09.824Z,38.99
2022-08-04T12:02:49.391Z,38.64
2022-08-04T12:05:32.294Z,37.77
2022-08-04T12:08:19.295Z,37.83
2022-08-04T12:10:58.068Z,37.17
2022-08-04T12:13:40.773Z,36.53
2022-08-04T12:16:17.020Z,36.52
2022-08-04T12:18:55.885Z,36.57
2022-08-04T12:21:30.392Z,36.15
2022-08-04T12:24:02.702Z,36.39
2022-08-04T12:26:35.913Z,36.37
2022-08-04T12:29:10.258Z,36.08
2022-08-04T12:31:46.354Z,35.60
2022-08-04T12:34:21.196Z,35.96
2022-08-04T12:36:56.821Z,35.92
2022-08-04T12:39:28.047Z,35.93
2022-08-04T12:42:03.489Z,35.39
2022-08-04T12:44:37.227Z,35.22
2022-08-04T12:47:28.451Z,34.87
2022-08-04T12:50:03.589Z,35.12
2022-08-04T12:55:27.163Z,34.80
2022-08-04T12:57:56.375Z,35.17
2022-08-04T13:00:29.830Z,34.63
2022-08-04T13:03:10.280Z,34.56
2022-08-04T13:05:41.043Z,34.14
2022-08-04T13:08:11.278Z,33.86
2022-08-04T13:10:41.771Z,34.22
2022-08-04T13:13:16.149Z,34.37
2022-08-04T13:15:47.534Z,34.71
2022-08-04T13:18:29.585Z,34.57
2022-08-04T13:21:20.381Z,34.86
2022-08-04T13:24:10.174Z,34.80
2022-08-04T13:26:55.419Z,35.66
2022-08-04T13:30:25.051Z,34.80
2022-08-04T13:32:20.306Z,35.07
2022-08-04T13:34:52.746Z,35.53
2022-08-04T13:37:27.523Z,36.25
2022-08-04T13:39:58.490Z,35.78
2022-08-04T13:42:28.314Z,35.75
2022-08-04T13:45:00.689Z,35.38
2022-08-04T13:47:33.356Z,35.87
2022-08-04T13:50:13.201Z,36.23
2022-08-04T13:52:43.824Z,36.36
2022-08-04T13:55:21.140Z,36.19
2022-08-04T13:57:54.007Z,36.82
2022-08-04T14:00:29.832Z,36.89
2022-08-04T14:03:23.764Z,36.38
2022-08-04T14:06:24.391Z,36.07
2022-08-04T14:08:55.803Z,35.53
2022-08-04T14:12:06.480Z,35.64
2022-08-04T14:14:24.156Z,35.75
2022-08-04T14:17:05.359Z,35.51
2022-08-04T14:19:53.023Z,35.66
2022-08-04T14:22:36.241Z,35.45
2022-08-04T14:25:09.317Z,36.12
2022-08-04T14:27:46.282Z,36.59
2022-08-04T14:30:30.825Z,36.37
2022-08-04T14:33:59.713Z,35.98
2022-08-04T14:35:58.548Z,35.47
2022-08-04T14:38:43.402Z,35.67
2022-08-04T14:41:12.965Z,35.91
2022-08-04T14:43:45.969Z,35.50
2022-08-04T14:46:14.901Z,35.30
2022-08-04T14:49:01.403Z,35.35
2022-08-04T14:51:36.384Z,35.11
2022-08-04T14:54:08.938Z,35.05
2022-08-04T14:56:48.106Z,35.33
2022-08-04T14:59:15.980Z,35.55
2022-08-04T15:01:44.851Z,35.32
2022-08-04T15:04:31.198Z,35.29
2022-08-04T15:07:00.137Z,35.51
2022-08-04T15:09:28.775Z,35.45
2022-08-04T15:11:58.277Z,35.23
2022-08-04T15:14:37.617Z,34.91
2022-08-04T15:17:11.943Z,34.67
2022-08-04T15:19:56.802Z,34.46
2022-08-04T15:22:24.864Z,34.62
2022-08-04T15:24:55.695Z,34.39
2022-08-04T15:27:29.803Z,34.32
2022-08-04T15:30:02.452Z,34.20
2022-08-04T15:32:33.401Z,34.20
2022-08-04T15:35:06.508Z,34.26
2022-08-04T15:37:47.483Z,34.40
2022-08-04T15:40:26.983Z,33.84
2022-08-04T15:43:29.421Z,33.96
2022-08-04T15:46:02.146Z,33.84
2022-08-04T15:48:48.253Z,33.97
2022-08-04T15:51:32.131Z,33.52
2022-08-04T15:54:23.478Z,33.55
2022-08-04T15:57:01.925Z,33.42
2022-08-04T16:00:01.307Z,33.16
2022-08-04T16:02:47.036Z,32.89
2022-08-04T16:05:35.531Z,32.75
2022-08-04T16:08:11.694Z,32.28
2022-08-04T16:10:42.292Z,32.23
2022-08-04T16:13:13.878Z,32.19
2022-08-04T16:15:45.472Z,31.85
2022-08-04T16:18:26.172Z,31.75
2022-08-04T16:20:56.528Z,31.42
2022-08-04T16:23:56.033Z,31.28
2022-08-04T16:26:54.991Z,31.00
2022-08-04T16:29:38.842Z,31.00
2022-08-04T16:32:41.266Z,30.67
2022-08-04T16:35:22.340Z,30.18
2022-08-04T16:37:54.317Z,29.76
2022-08-04T16:40:35.974Z,29.66
2022-08-04T16:43:07.585Z,29.57
2022-08-04T16:45:44.243Z,29.61
2022-08-04T16:48:14.170Z,28.91
2022-08-04T16:50:51.047Z,28.70
2022-08-04T16:53:58.680Z,28.56
2022-08-04T16:56:15.016Z,28.43
2022-08-04T16:58:53.659Z,28.29
2022-08-04T17:01:33.770Z,27.97
2022-08-04T17:04:07.829Z,27.34
2022-08-04T17:06:38.321Z,26.91
2022-08-04T17:09:08.095Z,27.05
2022-08-04T17:11:36.135Z,27.03
2022-08-04T17:14:06.049Z,27.25
2022-08-04T17:16:35.891Z,27.27
2022-08-04T17:19:07.131Z,27.08
2022-08-04T17:21:48.980Z,26.99
2022-08-04T17:24:18.200Z,27.15
2022-08-04T17:26:51.739Z,27.21
2022-08-04T17:29:43.435Z,27.21
2022-08-04T17:32:17.376Z,27.25
2022-08-04T17:34:49.783Z,27.45
2022-08-04T17:37:38.326Z,27.69
2022-08-04T17:40:13.339Z,27.68
2022-08-04T17:42:42.445Z,27.60
2022-08-04T17:45:49.425Z,27.39
2022-08-04T17:48:09.770Z,27.32
2022-08-04T17:50:43.510Z,27.67
2022-08-04T17:53:12.947Z,27.91
2022-08-04T17:55:43.206Z,27.95
2022-08-04T17:58:20.977Z,28.09
2022-08-04T18:03:51.599Z,28.42
2022-08-04T18:06:25.721Z,28.54
2022-08-04T18:08:57.796Z,28.52
2022-08-04T18:11:29.744Z,28.54
2022-08-04T18:14:11.280Z,28.22
2022-08-04T18:16:45.522Z,28.27
2022-08-04T18:19:15.783Z,28.40
2022-08-04T18:21:58.983Z,28.30
2022-08-04T18:24:34.465Z,28.19
2022-08-04T18:27:06.318Z,28.05
2022-08-04T18:29:39.048Z,28.04
2022-08-04T18:34:57.526Z,27.68
2022-08-04T18:38:06.817Z,27.65
2022-08-04T18:40:30.038Z,27.38
2022-08-04T18:43:03.742Z,27.10
2022-08-04T18:45:34.293Z,27.03
2022-08-04T18:48:04.100Z,26.96
2022-08-04T18:51:09.296Z,27.11
2022-08-04T18:53:35.368Z,27.11
2022-08-04T18:58:53.402Z,27.00
2022-08-04T19:01:22.014Z,27.18
2022-08-04T19:03:58.534Z,26.94
2022-08-04T19:09:20.903Z,26.55
2022-08-04T19:11:55.479Z,26.48
2022-08-04T19:14:23.631Z,26.46
2022-08-04T19:16:52.667Z,26.56
2022-08-04T19:19:21.793Z,26.61
2022-08-04T19:22:09.605Z,26.56
2022-08-04T19:24:41.043Z,26.52
2022-08-04T19:27:09.138Z,26.40
2022-08-04T19:29:41.035Z,26.22
2022-08-04T19:32:14.422Z,26.32
2022-08-04T19:34:46.334Z,26.39
2022-08-04T19:37:56.297Z,26.39
2022-08-04T19:40:07.482Z,26.12
2022-08-04T19:42:35.996Z,26.11
2022-08-04T19:45:04.006Z,25.97
2022-08-04T19:48:16.010Z,26.00
2022-08-04T19:50:20.234Z,26.08
2022-08-04T19:52:52.600Z,26.10
2022-08-04T19:55:36.736Z,25.94
2022-08-04T19:58:07.348Z,25.92
2022-08-04T20:00:37.391Z,25.89
2022-08-04T20:03:11.408Z,25.81
2022-08-04T20:05:54.192Z,25.69
2022-08-04T20:08:24.687Z,25.69
2022-08-04T20:10:54.900Z,25.65
2022-08-04T20:13:30.512Z,25.62
2022-08-04T20:16:06.431Z,25.60
2022-08-04T20:18:57.018Z,25.56
2022-08-04T20:21:36.666Z,25.53
2022-08-04T20:24:40.074Z,25.39
2022-08-04T20:27:07.615Z,25.36
2022-08-04T20:29:40.646Z,25.21
2022-08-04T20:32:09.615Z,25.16
2022-08-04T20:34:37.710Z,25.01
2022-08-04T20:37:10.221Z,25.07
2022-08-04T20:39:38.813Z,25.04
2022-08-04T20:42:11.639Z,25.12
2022-08-04T20:44:42.151Z,25.11
2022-08-04T20:47:14.294Z,25.07
2022-08-04T20:49:42.726Z,25.10
2022-08-04T20:52:16.367Z,25.11
2022-08-04T20:54:48.235Z,24.97
2022-08-04T20:57:18.332Z,24.96
2022-08-04T21:00:09.474Z,24.86
2022-08-04T21:02:37.362Z,24.73
2022-08-04T21:05:09.932Z,24.75
2022-08-04T21:07:43.847Z,24.77
2022-08-04T21:10:11.898Z,24.76
2022-08-04T21:12:41.443Z,24.73
2022-08-04T21:15:13.459Z,24.70
2022-08-04T21:17:56.972Z,24.73
2022-08-04T21:20:31.461Z,24.52
2022-08-04T21:23:02.260Z,24.47
2022-08-04T21:28:22.449Z,24.49
2022-08-04T21:30:55.684Z,24.57
2022-08-04T21:33:28.188Z,24.43
2022-08-04T21:36:14.239Z,24.40
2022-08-04T21:38:51.299Z,24.38
2022-08-04T21:41:24.286Z,24.31
2022-08-04T21:43:54.586Z,24.27
2022-08-04T21:46:22.386Z,24.34
2022-08-04T21:48:50.332Z,24.36
2022-08-04T21:51:55.802Z,24.37
2022-08-04T21:54:08.802Z,24.31
2022-08-04T21:56:37.954Z,24.38
2022-08-04T21:59:14.223Z,24.28
2022-08-04T22:01:50.613Z,24.35
2022-08-04T22:04:22.554Z,24.27
2022-08-04T22:06:52.177Z,24.20
2022-08-04T22:09:21.871Z,24.19
2022-08-04T22:11:51.863Z,24.14
2022-08-04T22:14:29.529Z,24.16
2022-08-04T22:17:02.801Z,24.14
2022-08-04T22:19:50.120Z,24.11
2022-08-04T22:22:24.684Z,24.11
2022-08-04T22:24:58.847Z,24.06
2022-08-04T22:27:47.666Z,24.00
2022-08-04T22:30:24.594Z,24.02
2022-08-04T22:33:00.927Z,24.05
2022-08-04T22:35:35.506Z,24.06
2022-08-04T22:38:29.072Z,23.99
2022-08-04T22:41:01.745Z,24.01
2022-08-04T22:43:31.709Z,23.93
2022-08-04T22:46:05.272Z,23.73
2022-08-04T22:48:35.899Z,23.72
2022-08-04T22:51:05.929Z,23.80
2022-08-04T22:53:35.765Z,23.80
2022-08-04T22:56:09.278Z,23.84
2022-08-04T22:58:44.856Z,23.81
2022-08-04T23:01:15.566Z,23.92
2022-08-04T23:03:50.859Z,23.87
2022-08-04T23:06:25.261Z,23.83
2022-08-04T23:08:53.496Z,23.57
2022-08-04T23:11:21.492Z,23.52
2022-08-04T23:13:49.350Z,23.40
2022-08-04T23:16:19.824Z,23.44
2022-08-04T23:18:48.900Z,23.36
2022-08-04T23:21:17.637Z,23.15
2022-08-04T23:24:00.832Z,23.00
2022-08-04T23:26:31.394Z,22.87
2022-08-04T23:28:59.226Z,22.95
2022-08-04T23:31:41.352Z,22.96
2022-08-04T23:34:21.097Z,22.73
2022-08-04T23:36:49.695Z,22.69
2022-08-04T23:39:17.793Z,22.77
2022-08-04T23:41:55.255Z,22.68
2022-08-04T23:44:26.548Z,22.79
2022-08-04T23:47:01.007Z,22.89
2022-08-04T23:49:44.975Z,22.98
2022-08-04T23:52:23.410Z,23.07
2022-08-04T23:54:58.194Z,22.91
2022-08-04T23:57:30.990Z,22.92
